createdAt,value
2024-01-29T00:02:47.892Z,102361.13
2024-01-29T00:05:51.028Z,102359.06
2024-01-29T00:08:54.305Z,102362.09
2024-01-29T00:11:57.428Z,102362.91
2024-01-29T00:15:00.586Z,102362.50
2024-01-29T00:18:05.915Z,102355.91
2024-01-29T00:21:08.783Z,102358.09
2024-01-29T00:24:12.029Z,102361.69
2024-01-29T00:27:14.833Z,102353.94
2024-01-29T00:30:17.974Z,102353.94
2024-01-29T00:33:21.128Z,102349.44
2024-01-29T00:36:24.356Z,102355.50
2024-01-29T00:39:27.319Z,102343.66
2024-01-29T00:42:30.867Z,102344.22
2024-01-29T00:45:33.719Z,102340.66
2024-01-29T00:48:37.029Z,102345.84
2024-01-29T00:51:40.257Z,102343.66
2024-01-29T00:54:43.448Z,102353.00
2024-01-29T00:57:46.230Z,102350.12
2024-01-29T01:00:49.605Z,102338.72
2024-01-29T01:03:52.727Z,102348.28
2024-01-29T01:06:56.389Z,102354.75
2024-01-29T01:09:59.401Z,102355.31
2024-01-29T01:13:02.706Z,102366.69
2024-01-29T01:16:05.879Z,102374.53
2024-01-29T01:19:09.282Z,102382.66
2024-01-29T01:22:13.345Z,102377.75
2024-01-29T01:25:16.620Z,102381.00
2024-01-29T01:28:19.302Z,102383.22
2024-01-29T01:31:22.384Z,102385.44
2024-01-29T01:34:25.509Z,102380.75
2024-01-29T01:37:28.610Z,102390.62
2024-01-29T01:40:31.615Z,102402.44
2024-01-29T01:43:34.592Z,102408.75
2024-01-29T01:46:37.706Z,102406.56
2024-01-29T01:49:42.079Z,102394.19
2024-01-29T01:52:45.103Z,102399.00
2024-01-29T01:55:48.521Z,102392.00
2024-01-29T01:58:54.622Z,102377.97
2024-01-29T02:01:59.630Z,102376.63
2024-01-29T02:05:03.306Z,102386.88
2024-01-29T02:08:06.606Z,102379.34
2024-01-29T02:11:09.982Z,102372.72
2024-01-29T02:14:12.838Z,102375.22
2024-01-29T02:17:15.887Z,102370.25
2024-01-29T02:20:20.554Z,102378.22
2024-01-29T02:23:23.575Z,102378.19
2024-01-29T02:26:26.488Z,102382.28
2024-01-29T02:29:29.553Z,102371.06
2024-01-29T02:32:32.845Z,102367.28
2024-01-29T02:35:36.755Z,102371.81
2024-01-29T02:38:39.527Z,102372.00
2024-01-29T02:41:42.892Z,102378.53
2024-01-29T02:44:47.391Z,102383.84
2024-01-29T02:47:50.502Z,102370.47
2024-01-29T02:50:53.822Z,102378.41
2024-01-29T02:53:57.079Z,102374.91
2024-01-29T02:57:00.659Z,102370.62
2024-01-29T03:00:05.962Z,102362.03
2024-01-29T06:30:07.736Z,102413.84
2024-01-29T06:33:11.487Z,102415.78
2024-01-29T06:36:17.735Z,102425.34
2024-01-29T06:39:21.458Z,102423.78
2024-01-29T06:42:24.486Z,102415.97
2024-01-29T06:45:29.972Z,102420.94
2024-01-29T06:48:38.442Z,102425.59
2024-01-29T06:51:41.621Z,102425.78
2024-01-29T06:54:44.396Z,102430.53
2024-01-29T06:57:48.371Z,102433.59
2024-01-29T07:00:52.060Z,102427.59
2024-01-29T07:03:55.305Z,102434.28
2024-01-29T07:06:58.801Z,102432.00
2024-01-29T07:10:02.266Z,102438.47
2024-01-29T07:13:24.946Z,102439.66
2024-01-29T07:16:47.937Z,102444.22
2024-01-29T07:19:53.632Z,102446.91
2024-01-29T07:22:57.600Z,102436.97
2024-01-29T07:26:01.181Z,102449.44
2024-01-29T07:29:06.781Z,102437.16
2024-01-29T07:32:10.044Z,102441.22
2024-01-29T07:35:14.188Z,102447.88
2024-01-29T07:38:17.057Z,102446.13
2024-01-29T07:41:21.014Z,102452.94
2024-01-29T07:44:24.243Z,102448.50
2024-01-29T07:47:36.120Z,102450.19
2024-01-29T07:50:38.922Z,102449.34
2024-01-29T07:53:42.814Z,102460.00
2024-01-29T07:56:45.848Z,102464.59
2024-01-29T07:59:49.134Z,102465.22
2024-01-29T08:02:52.760Z,102458.94
2024-01-29T08:05:55.886Z,102461.09
2024-01-29T08:08:58.920Z,102466.53
2024-01-29T08:12:04.269Z,102459.00
2024-01-29T08:15:10.403Z,102473.00
2024-01-29T08:18:30.094Z,102468.59
2024-01-29T08:21:42.749Z,102461.69
2024-01-29T08:24:47.449Z,102459.41
2024-01-29T08:28:08.026Z,102461.53
2024-01-29T08:31:20.584Z,102458.75
2024-01-29T08:34:47.325Z,102461.38
2024-01-29T08:37:51.597Z,102448.78
2024-01-29T08:40:56.003Z,102454.09
2024-01-29T08:44:17.672Z,102449.03
2024-01-29T08:47:20.455Z,102460.87
2024-01-29T08:50:23.903Z,102456.91
2024-01-29T08:53:26.676Z,102460.72
2024-01-29T08:56:32.000Z,102455.12
2024-01-29T08:59:55.205Z,102452.72
2024-01-29T09:03:15.037Z,102458.47
2024-01-29T09:06:57.619Z,102470.59
2024-01-29T09:10:00.920Z,102466.53
2024-01-29T09:13:24.471Z,102466.91
2024-01-29T09:16:47.526Z,102460.56
2024-01-29T09:19:52.990Z,102474.94
2024-01-29T09:22:58.260Z,102477.09
2024-01-29T09:26:03.669Z,102477.94
2024-01-29T09:29:07.238Z,102487.47
2024-01-29T09:32:10.328Z,102487.94
2024-01-29T09:35:54.753Z,102497.44
2024-01-29T09:38:57.603Z,102502.97
2024-01-29T09:42:04.626Z,102490.97
2024-01-29T09:45:11.677Z,102484.91
2024-01-29T09:48:17.084Z,102477.66
2024-01-29T09:51:21.707Z,102472.44
2024-01-29T09:54:25.018Z,102474.37
2024-01-29T09:57:27.872Z,102478.03
2024-01-29T10:00:34.046Z,102480.16
2024-01-29T10:03:39.982Z,102482.56
2024-01-29T10:06:43.758Z,102483.97
2024-01-29T10:09:46.885Z,102490.00
2024-01-29T10:12:49.657Z,102490.91
2024-01-29T10:15:54.931Z,102480.56
2024-01-29T10:18:59.114Z,102484.66
2024-01-29T10:22:02.797Z,102478.88
2024-01-29T10:25:06.212Z,102473.03
2024-01-29T10:28:13.733Z,102472.41
2024-01-29T10:31:17.033Z,102470.78
2024-01-29T10:34:25.564Z,102468.59
2024-01-29T10:37:29.829Z,102476.94
2024-01-29T10:40:37.621Z,102474.03
2024-01-29T10:43:43.117Z,102479.97
2024-01-29T10:46:48.342Z,102474.06
2024-01-29T10:49:53.644Z,102477.31
2024-01-29T10:52:58.389Z,102482.16
2024-01-29T10:56:01.824Z,102478.91
2024-01-29T10:59:05.783Z,102475.50
2024-01-29T11:02:14.372Z,102464.47
2024-01-29T11:05:18.998Z,102454.25
2024-01-29T11:08:25.946Z,102450.37
2024-01-29T11:11:30.243Z,102446.47
2024-01-29T11:14:32.997Z,102447.31
2024-01-29T11:17:36.046Z,102434.19
2024-01-29T11:20:41.858Z,102428.09
2024-01-29T11:23:48.201Z,102420.16
2024-01-29T11:27:11.841Z,102415.16
2024-01-29T11:30:57.699Z,102410.09
2024-01-29T11:34:07.232Z,102403.22
2024-01-29T11:37:31.349Z,102401.56
2024-01-29T11:40:54.535Z,102402.59
2024-01-29T11:44:24.331Z,102401.28
2024-01-29T11:47:48.058Z,102394.25
2024-01-29T11:51:13.561Z,102395.25
2024-01-29T11:54:37.458Z,102393.34
2024-01-29T11:58:28.802Z,102388.41
2024-01-29T12:01:52.665Z,102383.22
2024-01-29T12:04:59.676Z,102387.44
2024-01-29T12:08:03.566Z,102380.00
2024-01-29T12:11:09.182Z,102376.28
2024-01-29T12:14:16.639Z,102373.75
2024-01-29T12:17:21.490Z,102366.63
2024-01-29T12:20:24.633Z,102373.78
2024-01-29T12:23:28.201Z,102379.97
2024-01-29T12:26:36.025Z,102375.00
2024-01-29T12:29:40.291Z,102373.53
2024-01-29T12:32:55.144Z,102375.25
2024-01-29T12:36:10.565Z,102371.56
2024-01-29T12:39:14.458Z,102360.56
2024-01-29T12:42:18.118Z,102366.28
2024-01-29T12:45:45.558Z,102370.16
2024-01-29T12:48:49.956Z,102370.16
2024-01-29T12:52:14.072Z,102366.69
2024-01-29T12:55:19.407Z,102369.34
2024-01-29T12:58:39.790Z,102366.09
2024-01-29T13:01:43.595Z,102365.59
2024-01-29T13:04:47.435Z,102363.84
2024-01-29T13:07:51.135Z,102360.97
2024-01-29T13:10:55.401Z,102360.16
2024-01-29T15:08:27.307Z,102356.84
2024-01-29T15:11:31.205Z,102359.63
2024-01-29T15:14:34.894Z,102357.56
2024-01-29T15:17:38.869Z,102354.97
2024-01-29T15:20:41.622Z,102352.34
2024-01-29T15:23:44.928Z,102356.97
2024-01-29T15:26:47.819Z,102359.91
2024-01-29T15:30:13.657Z,102349.59
2024-01-29T15:33:16.455Z,102352.78
2024-01-29T15:36:19.667Z,102351.41
2024-01-29T15:39:22.713Z,102361.63
2024-01-29T15:42:30.152Z,102364.88
2024-01-29T15:45:33.253Z,102365.09
2024-01-29T15:48:55.560Z,102363.53
2024-01-29T15:51:58.389Z,102367.62
2024-01-29T15:55:03.919Z,102365.53
2024-01-29T15:58:09.846Z,102374.12
2024-01-29T16:01:14.939Z,102379.19
2024-01-29T16:04:42.937Z,102382.31
2024-01-29T16:07:49.381Z,102385.75
2024-01-29T16:11:02.919Z,102387.31
2024-01-29T16:14:05.678Z,102379.66
2024-01-29T16:17:30.456Z,102385.78
2024-01-29T16:20:53.722Z,102385.56
2024-01-29T16:24:16.979Z,102382.47
2024-01-29T16:27:19.980Z,102393.66
2024-01-29T16:30:32.236Z,102391.06
2024-01-29T16:33:35.127Z,102390.75
2024-01-29T16:36:39.845Z,102398.63
2024-01-29T16:39:43.228Z,102394.31
2024-01-29T16:42:46.870Z,102402.84
2024-01-29T16:45:50.349Z,102398.72
2024-01-29T16:48:58.757Z,102399.66
2024-01-29T16:52:01.653Z,102400.94
2024-01-29T16:55:05.514Z,102399.78
2024-01-29T16:58:10.253Z,102406.31
2024-01-29T17:01:13.686Z,102404.16
2024-01-29T17:04:18.916Z,102403.44
2024-01-29T18:39:58.001Z,102435.31
2024-01-29T18:43:01.599Z,102428.81
2024-01-29T18:46:04.679Z,102428.03
2024-01-29T18:49:08.017Z,102420.94
2024-01-29T18:52:11.841Z,102424.06
2024-01-29T18:55:16.624Z,102428.66
2024-01-29T18:58:22.415Z,102429.03
2024-01-29T19:01:26.127Z,102431.53
2024-01-29T19:04:52.291Z,102425.22
2024-01-29T19:07:56.388Z,102422.66
2024-01-29T19:10:59.552Z,102429.16
2024-01-29T19:14:03.566Z,102433.00
2024-01-29T19:17:08.233Z,102439.50
2024-01-29T19:20:14.593Z,102436.75
2024-01-29T19:23:18.921Z,102445.16
2024-01-29T19:26:25.529Z,102452.28
2024-01-29T19:29:30.922Z,102441.28
2024-01-29T19:32:54.444Z,102440.06
2024-01-29T19:35:57.464Z,102438.66
2024-01-29T19:39:01.340Z,102457.69
2024-01-29T19:42:05.625Z,102463.06
2024-01-29T19:45:17.348Z,102465.78
2024-01-29T19:48:21.584Z,102472.66
2024-01-29T19:51:26.272Z,102466.84
2024-01-29T19:54:31.159Z,102478.84
2024-01-29T19:57:38.771Z,102476.63
2024-01-29T20:00:43.211Z,102482.28
2024-01-29T20:03:48.193Z,102478.31
2024-01-29T20:06:51.358Z,102481.63
2024-01-29T20:09:57.611Z,102478.50
2024-01-29T20:13:01.827Z,102487.47
2024-01-29T20:16:06.560Z,102474.56
2024-01-29T20:19:09.671Z,102474.69
2024-01-29T20:22:17.629Z,102481.28
2024-01-29T20:25:24.045Z,102485.59
2024-01-29T20:28:27.348Z,102482.53
2024-01-29T20:31:31.358Z,102484.09
2024-01-29T20:34:36.501Z,102484.91
2024-01-29T20:37:40.879Z,102464.37
2024-01-29T20:40:44.600Z,102473.50
2024-01-29T20:43:48.807Z,102481.75
2024-01-29T20:46:54.029Z,102475.03
2024-01-29T20:49:57.421Z,102472.00
2024-01-29T20:53:00.637Z,102476.97
2024-01-29T20:56:03.567Z,102469.78
2024-01-29T20:59:12.437Z,102468.03
2024-01-29T21:02:16.922Z,102469.25
2024-01-29T21:05:23.209Z,102478.72
2024-01-29T21:08:27.927Z,102480.53
2024-01-29T21:11:34.240Z,102480.75
2024-01-29T21:14:37.450Z,102473.38
2024-01-29T21:17:44.269Z,102476.12
2024-01-29T21:20:47.882Z,102481.50
2024-01-29T21:23:54.048Z,102482.75
2024-01-29T21:26:57.579Z,102483.41
2024-01-29T21:30:02.328Z,102493.03
2024-01-29T21:33:05.414Z,102489.88
2024-01-29T21:36:09.266Z,102500.03
2024-01-29T21:39:16.395Z,102493.16
2024-01-29T21:42:19.741Z,102492.84
2024-01-29T21:45:22.579Z,102500.53
2024-01-29T21:48:25.803Z,102496.09
2024-01-29T21:51:28.568Z,102490.09
2024-01-29T21:54:34.524Z,102489.81
2024-01-29T21:57:37.573Z,102490.63
2024-01-29T22:00:45.854Z,102492.19
2024-01-29T22:03:53.913Z,102488.09
2024-01-29T22:06:57.089Z,102494.25
2024-01-29T22:10:02.987Z,102498.66
2024-01-29T22:13:06.886Z,102502.16
2024-01-29T22:16:10.318Z,102498.63
2024-01-29T22:19:13.465Z,102489.91
2024-01-29T22:22:16.712Z,102499.09
2024-01-29T22:25:19.735Z,102487.91
2024-01-29T22:28:23.326Z,102501.16
2024-01-29T22:31:26.195Z,102493.28
2024-01-29T22:34:29.304Z,102493.50
2024-01-29T22:37:34.046Z,102490.63
2024-01-29T22:40:38.416Z,102502.44
2024-01-29T22:43:41.851Z,102503.28
2024-01-29T22:46:47.080Z,102501.13
2024-01-29T22:49:50.623Z,102509.72
2024-01-29T22:52:54.725Z,102500.91
2024-01-29T22:55:58.607Z,102495.94
2024-01-29T22:59:02.276Z,102501.16
2024-01-29T23:02:05.207Z,102502.56
2024-01-29T23:05:08.251Z,102512.63
2024-01-29T23:08:10.913Z,102513.72
2024-01-29T23:11:14.251Z,102515.09
2024-01-29T23:14:17.028Z,102516.53
2024-01-29T23:17:19.977Z,102521.28
2024-01-29T23:20:23.166Z,102517.31
2024-01-29T23:23:29.633Z,102522.91
2024-01-29T23:26:32.349Z,102515.16
